createdAt,value
2017-12-30T00:00:04.898Z,991.23
2017-12-30T00:01:04.877Z,991.23
2017-12-30T00:02:04.811Z,991.26
2017-12-30T00:03:04.810Z,991.32
2017-12-30T00:04:04.824Z,991.33
2017-12-30T00:05:04.752Z,991.38
2017-12-30T00:06:04.819Z,991.35
2017-12-30T00:07:04.730Z,991.37
2017-12-30T00:08:04.773Z,991.40
2017-12-30T00:09:04.820Z,991.38
2017-12-30T00:10:04.821Z,991.40
2017-12-30T00:11:04.822Z,991.38
2017-12-30T00:12:04.826Z,991.45
2017-12-30T00:13:04.732Z,991.43
2017-12-30T00:14:04.778Z,991.53
2017-12-30T00:15:04.730Z,991.53
2017-12-30T00:16:04.736Z,991.50
2017-12-30T00:17:04.827Z,991.49
2017-12-30T00:18:04.841Z,991.52
2017-12-30T00:19:04.832Z,991.55
2017-12-30T00:20:04.814Z,991.54
2017-12-30T00:21:04.782Z,991.50
2017-12-30T00:22:04.872Z,991.55
2017-12-30T00:23:04.738Z,991.53
2017-12-30T00:24:04.737Z,991.58
2017-12-30T00:25:04.785Z,991.55
2017-12-30T00:26:04.788Z,991.58
2017-12-30T00:28:04.739Z,991.58
2017-12-30T00:29:04.782Z,991.61
2017-12-30T00:30:04.838Z,991.57
2017-12-30T00:31:04.789Z,991.62
2017-12-30T00:32:04.849Z,991.63
2017-12-30T00:33:04.748Z,991.57
2017-12-30T00:34:04.831Z,991.62
2017-12-30T00:35:04.900Z,991.61
2017-12-30T00:36:04.825Z,991.58
2017-12-30T00:37:04.900Z,991.52
2017-12-30T00:38:04.828Z,991.62
2017-12-30T00:39:04.921Z,991.59
2017-12-30T00:40:04.830Z,991.58
2017-12-30T00:41:04.898Z,991.55
2017-12-30T00:42:04.832Z,991.61
2017-12-30T00:43:04.838Z,991.63
2017-12-30T00:44:04.900Z,991.54
2017-12-30T00:45:04.900Z,991.64
2017-12-30T00:46:04.901Z,991.64
2017-12-30T00:47:04.907Z,991.63
2017-12-30T00:48:04.838Z,991.70
2017-12-30T00:49:04.838Z,991.71
2017-12-30T00:50:04.904Z,991.70
2017-12-30T00:51:04.843Z,991.74
2017-12-30T00:52:04.907Z,991.76
2017-12-30T00:53:04.833Z,991.75
2017-12-30T00:54:04.905Z,991.78
2017-12-30T00:55:04.841Z,991.73
2017-12-30T00:56:04.907Z,991.72
2017-12-30T00:57:04.838Z,991.75
2017-12-30T00:58:04.843Z,991.77
2017-12-30T00:59:04.909Z,991.73
2017-12-30T01:00:04.845Z,991.76
2017-12-30T01:01:04.912Z,991.76
2017-12-30T01:02:04.912Z,991.74
2017-12-30T01:03:04.848Z,991.73
2017-12-30T01:04:04.914Z,991.73
2017-12-30T01:05:04.847Z,991.74
2017-12-30T01:06:04.850Z,991.78
2017-12-30T01:07:04.850Z,991.80
2017-12-30T01:08:04.918Z,991.78
2017-12-30T01:09:04.848Z,991.78
2017-12-30T01:10:04.922Z,991.76
2017-12-30T01:11:04.849Z,991.76
2017-12-30T01:12:04.920Z,991.81
2017-12-30T01:13:04.854Z,991.83
2017-12-30T01:14:04.919Z,991.80
2017-12-30T01:15:04.854Z,991.82
2017-12-30T01:16:04.921Z,991.83
2017-12-30T01:17:04.853Z,991.82
2017-12-30T01:18:04.926Z,991.82
2017-12-30T01:19:04.857Z,991.81
2017-12-30T01:20:04.922Z,991.75
2017-12-30T01:21:04.853Z,991.74
2017-12-30T01:22:04.851Z,991.71
2017-12-30T01:23:04.861Z,991.73
2017-12-30T01:24:04.924Z,991.75
2017-12-30T01:25:04.925Z,991.73
2017-12-30T01:26:04.872Z,991.75
2017-12-30T01:27:04.856Z,991.77
2017-12-30T01:28:04.929Z,991.80
2017-12-30T01:29:04.860Z,991.86
2017-12-30T01:30:04.930Z,991.89
2017-12-30T01:31:04.862Z,991.84
2017-12-30T01:32:04.887Z,991.87
2017-12-30T01:33:04.931Z,991.93
2017-12-30T01:34:04.932Z,991.94
2017-12-30T01:35:04.867Z,991.94
2017-12-30T01:36:04.982Z,991.94
2017-12-30T01:37:04.936Z,991.89
2017-12-30T01:38:04.866Z,991.90
2017-12-30T01:39:04.935Z,991.90
2017-12-30T01:40:04.873Z,991.89
2017-12-30T01:41:04.935Z,991.94
2017-12-30T01:42:04.939Z,991.96
2017-12-30T01:43:04.876Z,991.92
2017-12-30T01:44:04.870Z,991.89
2017-12-30T01:45:04.921Z,991.81
2017-12-30T01:46:04.905Z,991.79
2017-12-30T01:47:04.844Z,991.76
2017-12-30T01:48:04.903Z,991.75
2017-12-30T01:49:04.825Z,991.76
2017-12-30T01:50:04.870Z,991.76
2017-12-30T01:51:04.911Z,991.74
2017-12-30T01:52:04.842Z,991.72
2017-12-30T01:53:04.909Z,991.71
2017-12-30T01:54:04.943Z,991.68
2017-12-30T01:55:04.941Z,991.70
2017-12-30T01:56:04.881Z,991.71
2017-12-30T01:57:04.945Z,991.69
2017-12-30T01:58:04.873Z,991.78
2017-12-30T01:59:04.960Z,991.75
2017-12-30T02:00:04.880Z,991.74
2017-12-30T02:01:04.949Z,991.69
2017-12-30T02:02:04.947Z,991.67
2017-12-30T02:03:04.882Z,991.68
2017-12-30T02:04:04.940Z,991.71
2017-12-30T02:05:04.878Z,991.68
2017-12-30T02:06:04.915Z,991.62
2017-12-30T02:07:04.896Z,991.61
2017-12-30T02:08:04.833Z,991.57
2017-12-30T02:09:04.837Z,991.63
2017-12-30T02:10:04.951Z,991.60
2017-12-30T02:11:04.852Z,991.58
2017-12-30T02:12:04.833Z,991.55
2017-12-30T02:13:04.858Z,991.60
2017-12-30T02:14:04.953Z,991.54
2017-12-30T02:15:04.955Z,991.53
2017-12-30T02:16:04.953Z,991.55
2017-12-30T02:17:04.891Z,991.54
2017-12-30T02:18:04.962Z,991.52
2017-12-30T02:19:04.896Z,991.61
2017-12-30T02:20:04.960Z,991.63
2017-12-30T02:21:04.888Z,991.66
2017-12-30T02:22:04.958Z,991.69
2017-12-30T02:23:04.958Z,991.73
2017-12-30T02:24:04.922Z,991.76
2017-12-30T02:25:04.854Z,991.73
2017-12-30T02:26:04.832Z,991.81
2017-12-30T02:27:04.871Z,991.83
2017-12-30T02:28:04.829Z,991.83
2017-12-30T02:29:04.827Z,991.81
2017-12-30T02:30:04.944Z,991.82
2017-12-30T02:31:04.946Z,991.82
2017-12-30T02:32:04.834Z,991.81
2017-12-30T02:33:04.955Z,991.81
2017-12-30T02:34:04.939Z,991.81
2017-12-30T02:35:04.890Z,991.78
2017-12-30T02:36:04.888Z,991.70
2017-12-30T02:37:04.834Z,991.73
2017-12-30T02:38:04.836Z,991.83
2017-12-30T02:39:04.835Z,991.85
2017-12-30T02:40:04.858Z,991.82
2017-12-30T02:41:04.957Z,991.83
2017-12-30T02:42:04.828Z,991.75
2017-12-30T02:43:04.924Z,991.78
2017-12-30T02:44:04.906Z,991.72
2017-12-30T02:45:04.975Z,991.66
2017-12-30T02:46:04.906Z,991.66
2017-12-30T02:47:04.911Z,991.64
2017-12-30T02:48:04.976Z,991.67
2017-12-30T02:49:04.906Z,991.61
2017-12-30T02:50:04.977Z,991.59
2017-12-30T02:51:04.912Z,991.58
2017-12-30T02:52:04.915Z,991.60
2017-12-30T02:53:04.982Z,991.61
2017-12-30T02:54:04.962Z,991.57
2017-12-30T02:55:04.895Z,991.55
2017-12-30T02:56:04.862Z,991.54
2017-12-30T02:57:04.834Z,991.57
2017-12-30T02:58:04.961Z,991.49
2017-12-30T02:59:04.876Z,991.48
2017-12-30T03:00:04.961Z,991.51
2017-12-30T03:01:04.935Z,991.48
2017-12-30T03:02:04.912Z,991.50
2017-12-30T03:03:04.911Z,991.52
2017-12-30T03:04:04.977Z,991.44
2017-12-30T03:05:04.935Z,991.44
2017-12-30T03:06:04.868Z,991.41
2017-12-30T03:07:04.882Z,991.37
2017-12-30T03:08:04.952Z,991.40
2017-12-30T03:09:04.972Z,991.39
2017-12-30T03:10:04.916Z,991.39
2017-12-30T03:11:04.984Z,991.41
2017-12-30T03:12:04.986Z,991.43
2017-12-30T03:13:04.881Z,991.42
2017-12-30T03:14:04.864Z,991.45
2017-12-30T03:15:04.937Z,991.40
2017-12-30T03:16:04.917Z,991.41
2017-12-30T03:17:04.865Z,991.47
2017-12-30T03:18:04.978Z,991.44
2017-12-30T03:19:04.952Z,991.49
2017-12-30T03:20:04.857Z,991.50
2017-12-30T03:21:04.883Z,991.48
2017-12-30T03:22:04.915Z,991.49
2017-12-30T03:23:04.976Z,991.44
2017-12-30T03:24:04.997Z,991.45
2017-12-30T03:25:04.939Z,991.41
2017-12-30T03:26:04.996Z,991.42
2017-12-30T03:27:04.937Z,991.43
2017-12-30T03:28:04.994Z,991.43
2017-12-30T03:29:05.001Z,991.44
2017-12-30T03:30:04.943Z,991.38
2017-12-30T03:31:05.005Z,991.38
2017-12-30T03:32:04.938Z,991.36
2017-12-30T03:33:05.004Z,991.34
2017-12-30T03:34:05.007Z,991.33
2017-12-30T03:35:04.936Z,991.28
2017-12-30T03:36:05.010Z,991.24
2017-12-30T03:37:04.938Z,991.20
2017-12-30T03:38:04.939Z,991.25
2017-12-30T03:39:05.012Z,991.28
2017-12-30T03:40:04.939Z,991.23
2017-12-30T03:41:05.008Z,991.23
2017-12-30T03:42:04.942Z,991.20
2017-12-30T03:43:05.007Z,991.17
2017-12-30T03:44:04.938Z,991.19
2017-12-30T03:45:05.011Z,991.17
2017-12-30T03:46:04.943Z,991.17
2017-12-30T03:47:05.021Z,991.13
2017-12-30T03:48:05.016Z,991.13
2017-12-30T03:49:04.945Z,991.08
2017-12-30T03:50:05.015Z,991.10
2017-12-30T03:51:04.949Z,991.13
2017-12-30T03:52:04.945Z,991.15
2017-12-30T03:53:05.014Z,991.19
2017-12-30T03:54:04.946Z,991.23
2017-12-30T03:55:05.019Z,991.20
2017-12-30T03:56:04.952Z,991.23
2017-12-30T03:57:05.020Z,991.24
2017-12-30T03:58:04.953Z,991.25
2017-12-30T03:59:05.022Z,991.25
2017-12-30T04:00:04.953Z,991.24
2017-12-30T04:01:05.020Z,991.21
2017-12-30T04:02:04.993Z,991.26
2017-12-30T04:03:04.955Z,991.26
2017-12-30T04:04:05.011Z,991.27
2017-12-30T04:05:05.011Z,991.27
2017-12-30T04:06:04.931Z,991.27
2017-12-30T04:07:05.017Z,991.28
2017-12-30T04:08:04.956Z,991.26
2017-12-30T04:09:05.023Z,991.27
2017-12-30T04:10:04.992Z,991.25
2017-12-30T04:11:05.019Z,991.24
2017-12-30T04:12:05.013Z,991.23
2017-12-30T04:13:04.928Z,991.27
2017-12-30T04:14:04.937Z,991.24
2017-12-30T04:15:04.846Z,991.23
2017-12-30T04:16:04.851Z,991.22
2017-12-30T04:17:04.846Z,991.23
2017-12-30T04:18:04.941Z,991.29
2017-12-30T04:19:04.898Z,991.26
2017-12-30T04:20:04.853Z,991.32
2017-12-30T04:21:04.891Z,991.29
2017-12-30T04:22:04.910Z,991.28
2017-12-30T04:23:04.942Z,991.29
2017-12-30T04:24:05.022Z,991.35
2017-12-30T04:25:04.933Z,991.36
2017-12-30T04:26:04.943Z,991.35
2017-12-30T04:27:04.971Z,991.36
2017-12-30T04:28:05.028Z,991.25
2017-12-30T04:29:05.024Z,991.29
2017-12-30T04:30:04.939Z,991.29
2017-12-30T04:31:04.940Z,991.26
2017-12-30T04:32:04.906Z,991.25
2017-12-30T04:33:04.941Z,991.25
2017-12-30T04:34:04.924Z,991.27
2017-12-30T04:35:04.944Z,991.29
2017-12-30T04:36:04.971Z,991.33
2017-12-30T04:37:05.038Z,991.31
2017-12-30T04:38:04.942Z,991.34
2017-12-30T04:39:04.908Z,991.37
2017-12-30T04:40:04.927Z,991.36
2017-12-30T04:41:05.031Z,991.35
2017-12-30T04:42:04.992Z,991.32
2017-12-30T04:43:04.947Z,991.37
2017-12-30T04:44:05.046Z,991.35
2017-12-30T04:45:04.985Z,991.34
2017-12-30T04:46:05.047Z,991.37
2017-12-30T04:47:04.983Z,991.42
2017-12-30T04:48:05.048Z,991.39
2017-12-30T04:49:04.983Z,991.40
2017-12-30T04:50:04.929Z,991.42
2017-12-30T04:51:05.086Z,991.33
2017-12-30T04:52:05.050Z,991.32
2017-12-30T04:53:05.050Z,991.29
2017-12-30T04:54:05.049Z,991.26
2017-12-30T04:55:04.988Z,991.24
2017-12-30T04:56:05.051Z,991.22
2017-12-30T04:57:05.052Z,991.25
2017-12-30T04:58:04.989Z,991.24
2017-12-30T04:59:05.057Z,991.25
2017-12-30T05:00:05.055Z,991.36
2017-12-30T05:01:05.007Z,991.40
2017-12-30T05:02:04.990Z,991.48
2017-12-30T05:03:05.057Z,991.52
2017-12-30T05:04:05.048Z,991.52
2017-12-30T05:05:05.042Z,991.56
2017-12-30T05:06:04.966Z,991.58
2017-12-30T05:07:04.960Z,991.58
2017-12-30T05:08:04.962Z,991.57
2017-12-30T05:09:04.961Z,991.54
2017-12-30T05:10:05.049Z,991.52
2017-12-30T05:11:05.033Z,991.56
2017-12-30T05:12:05.055Z,991.52
2017-12-30T05:13:04.994Z,991.50
2017-12-30T05:14:05.051Z,991.49
2017-12-30T05:15:05.055Z,991.54
2017-12-30T05:16:04.968Z,991.51
2017-12-30T05:17:04.965Z,991.49
2017-12-30T05:18:05.059Z,991.52
2017-12-30T05:19:04.995Z,991.51
2017-12-30T05:20:04.964Z,991.49
2017-12-30T05:21:05.036Z,991.47
2017-12-30T05:22:04.968Z,991.46
2017-12-30T05:23:04.973Z,991.47
2017-12-30T05:24:05.003Z,991.49
2017-12-30T05:25:04.951Z,991.48
2017-12-30T05:26:05.039Z,991.50
2017-12-30T05:27:05.024Z,991.53
2017-12-30T05:28:05.039Z,991.52
2017-12-30T05:29:04.973Z,991.55
2017-12-30T05:30:05.022Z,991.58
2017-12-30T05:31:05.018Z,991.51
2017-12-30T05:32:04.954Z,991.50
2017-12-30T05:33:04.955Z,991.46
2017-12-30T05:34:05.075Z,991.44
2017-12-30T05:35:05.008Z,991.47
2017-12-30T05:36:05.076Z,991.42
2017-12-30T05:37:05.012Z,991.40
2017-12-30T05:38:05.076Z,991.38
2017-12-30T05:39:05.014Z,991.40
2017-12-30T05:40:05.115Z,991.37
2017-12-30T05:41:05.017Z,991.39
2017-12-30T05:42:05.094Z,991.41
2017-12-30T05:43:05.010Z,991.45
2017-12-30T05:44:05.013Z,991.43
2017-12-30T05:45:05.051Z,991.42
2017-12-30T05:46:05.012Z,991.43
2017-12-30T05:47:05.051Z,991.43
2017-12-30T05:48:05.034Z,991.46
2017-12-30T05:49:04.987Z,991.44
2017-12-30T05:50:05.084Z,991.44
2017-12-30T05:51:05.015Z,991.47
2017-12-30T05:52:04.969Z,991.43
2017-12-30T05:53:05.034Z,991.44
2017-12-30T05:54:04.989Z,991.41
2017-12-30T05:55:05.068Z,991.35
2017-12-30T05:56:05.037Z,991.41
2017-12-30T05:57:04.940Z,991.43
2017-12-30T05:58:04.984Z,991.41
2017-12-30T05:59:05.000Z,991.39
2017-12-30T06:00:05.040Z,991.41
2017-12-30T06:01:05.023Z,991.37
2017-12-30T06:02:05.050Z,991.33
2017-12-30T06:03:04.958Z,991.33
2017-12-30T06:04:04.984Z,991.27
2017-12-30T06:05:05.184Z,991.32
2017-12-30T06:06:05.029Z,991.32
2017-12-30T06:07:05.094Z,991.25
2017-12-30T06:08:05.098Z,991.27
2017-12-30T06:09:05.034Z,991.34
2017-12-30T06:10:05.097Z,991.28
2017-12-30T06:11:05.094Z,991.26
2017-12-30T06:12:05.042Z,991.24
2017-12-30T06:13:05.100Z,991.24
2017-12-30T06:14:05.101Z,991.26
2017-12-30T06:15:05.033Z,991.27
2017-12-30T06:16:05.101Z,991.27
2017-12-30T06:17:05.028Z,991.18
2017-12-30T06:18:05.101Z,991.17
2017-12-30T06:19:05.104Z,991.19
2017-12-30T06:20:05.039Z,991.20
2017-12-30T06:21:05.038Z,991.21
2017-12-30T06:22:05.105Z,991.16
2017-12-30T06:23:05.052Z,991.16
2017-12-30T06:24:05.108Z,991.17
2017-12-30T06:25:05.038Z,991.13
2017-12-30T06:26:05.106Z,991.12
2017-12-30T06:27:05.035Z,991.10
2017-12-30T06:28:05.107Z,991.11
2017-12-30T06:29:05.045Z,991.11
2017-12-30T06:30:05.111Z,991.15
2017-12-30T06:31:05.045Z,991.14
2017-12-30T06:32:05.113Z,991.13
2017-12-30T06:33:05.043Z,991.13
2017-12-30T06:34:05.042Z,991.10
2017-12-30T06:35:05.124Z,991.13
2017-12-30T06:36:05.041Z,991.16
2017-12-30T06:37:05.113Z,991.20
2017-12-30T06:38:05.041Z,991.16
2017-12-30T06:39:05.114Z,991.12
2017-12-30T06:40:05.045Z,991.08
2017-12-30T06:41:05.114Z,991.11
2017-12-30T06:42:05.043Z,991.09
2017-12-30T06:43:05.116Z,991.07
2017-12-30T06:44:05.119Z,991.12
2017-12-30T06:45:05.106Z,991.12
2017-12-30T06:46:05.017Z,991.12
2017-12-30T06:47:05.081Z,991.12
2017-12-30T06:48:04.991Z,991.12
2017-12-30T06:49:05.080Z,991.12
2017-12-30T06:50:05.062Z,990.91
2017-12-30T06:51:05.064Z,990.92
2017-12-30T06:52:05.004Z,990.95
2017-12-30T06:53:05.111Z,990.85
2017-12-30T06:54:05.049Z,990.86
2017-12-30T06:55:05.067Z,990.84
2017-12-30T06:56:05.205Z,990.87
2017-12-30T06:57:05.124Z,990.89
2017-12-30T06:58:05.054Z,990.90
2017-12-30T06:59:05.129Z,990.86
2017-12-30T07:00:05.056Z,990.88
2017-12-30T07:01:05.126Z,990.81
2017-12-30T07:02:05.067Z,990.77
2017-12-30T07:03:05.129Z,990.81
2017-12-30T07:04:05.064Z,990.79
2017-12-30T07:05:05.061Z,990.79
2017-12-30T07:06:05.157Z,990.73
2017-12-30T07:07:05.023Z,990.70
2017-12-30T07:08:05.062Z,990.69
2017-12-30T07:09:05.131Z,990.67
2017-12-30T07:10:05.069Z,990.69
2017-12-30T07:11:05.065Z,990.71
2017-12-30T07:12:05.135Z,990.75
2017-12-30T07:13:05.068Z,990.71
2017-12-30T07:14:05.136Z,990.67
2017-12-30T07:15:05.065Z,990.65
2017-12-30T07:16:05.138Z,990.58
2017-12-30T07:17:05.204Z,990.58
2017-12-30T07:18:05.071Z,990.55
2017-12-30T07:19:05.351Z,990.50
2017-12-30T07:20:05.073Z,990.50
2017-12-30T07:21:05.139Z,990.47
2017-12-30T07:22:05.070Z,990.44
2017-12-30T07:23:05.140Z,990.36
2017-12-30T07:24:05.144Z,990.30
2017-12-30T07:25:05.042Z,990.29
2017-12-30T07:26:05.140Z,990.22
2017-12-30T07:27:05.071Z,990.23
2017-12-30T07:28:05.052Z,990.15
2017-12-30T07:29:05.144Z,990.16
2017-12-30T07:30:05.048Z,990.16
2017-12-30T07:31:05.030Z,990.16
2017-12-30T07:32:05.047Z,990.14
2017-12-30T07:33:05.028Z,990.11
2017-12-30T07:34:05.096Z,990.16
2017-12-30T07:35:05.148Z,990.14
2017-12-30T07:36:05.112Z,990.14
2017-12-30T07:37:05.166Z,990.11
2017-12-30T07:38:05.107Z,990.12
2017-12-30T07:39:05.082Z,990.10
2017-12-30T07:40:05.082Z,990.12
2017-12-30T07:41:05.153Z,990.12
2017-12-30T07:42:05.090Z,990.07
2017-12-30T07:43:05.151Z,990.07
2017-12-30T07:44:05.085Z,990.04
2017-12-30T07:45:05.088Z,990.03
2017-12-30T07:46:05.157Z,990.02
2017-12-30T07:47:05.091Z,989.97
2017-12-30T07:48:05.154Z,989.94
2017-12-30T07:49:05.104Z,989.88
2017-12-30T07:50:05.161Z,989.92
2017-12-30T07:51:05.108Z,989.92
2017-12-30T07:52:05.156Z,989.90
2017-12-30T07:53:05.164Z,989.94
2017-12-30T07:54:05.163Z,989.94
2017-12-30T07:55:05.148Z,989.90
2017-12-30T07:56:05.111Z,989.95
2017-12-30T07:57:05.048Z,989.89
2017-12-30T07:58:05.106Z,989.89
2017-12-30T07:59:05.357Z,989.91
2017-12-30T08:00:05.075Z,989.85
2017-12-30T08:01:05.047Z,989.84
2017-12-30T08:02:05.066Z,989.78
2017-12-30T08:03:05.048Z,989.80
2017-12-30T08:04:05.158Z,989.81
2017-12-30T08:05:05.165Z,989.78
2017-12-30T08:06:05.106Z,989.74
2017-12-30T08:07:05.168Z,989.73
2017-12-30T08:08:05.093Z,989.76
2017-12-30T08:09:05.167Z,989.77
2017-12-30T08:10:05.102Z,989.81
2017-12-30T08:11:05.179Z,989.77
2017-12-30T08:12:05.097Z,989.79
2017-12-30T08:13:05.171Z,989.79
2017-12-30T08:14:05.099Z,989.89
2017-12-30T08:15:05.173Z,989.90
2017-12-30T08:16:05.102Z,989.81
2017-12-30T08:17:05.179Z,989.72
2017-12-30T08:18:05.174Z,989.73
2017-12-30T08:19:05.107Z,989.74
2017-12-30T08:20:05.177Z,989.77
2017-12-30T08:21:05.110Z,989.74
2017-12-30T08:22:05.176Z,989.73
2017-12-30T08:23:05.102Z,989.63
2017-12-30T08:24:05.179Z,989.64
2017-12-30T08:25:05.067Z,989.51
2017-12-30T08:26:05.136Z,989.52
2017-12-30T08:27:05.125Z,989.40
2017-12-30T08:28:05.163Z,989.40
2017-12-30T08:29:05.111Z,989.36
2017-12-30T08:30:05.188Z,989.33
2017-12-30T08:31:05.185Z,989.39
2017-12-30T08:32:05.132Z,989.37
2017-12-30T08:33:05.164Z,989.30
2017-12-30T08:34:05.136Z,989.27
2017-12-30T08:35:05.183Z,989.26
2017-12-30T08:36:05.189Z,989.25
2017-12-30T08:37:05.108Z,989.25
2017-12-30T08:38:05.186Z,989.21
2017-12-30T08:39:05.187Z,989.16
2017-12-30T08:40:05.120Z,989.16
2017-12-30T08:41:05.069Z,989.10
2017-12-30T08:42:05.118Z,989.07
2017-12-30T08:43:05.187Z,989.04
2017-12-30T08:44:05.114Z,989.00
2017-12-30T08:45:05.127Z,989.03
2017-12-30T08:46:05.132Z,989.06
2017-12-30T08:47:05.121Z,989.09
2017-12-30T08:48:05.040Z,989.14
2017-12-30T08:49:05.048Z,989.06
2017-12-30T08:50:05.091Z,989.07
2017-12-30T08:51:05.090Z,989.05
2017-12-30T08:52:05.087Z,988.98
2017-12-30T08:53:05.086Z,988.98
2017-12-30T08:54:05.142Z,988.93
2017-12-30T08:55:05.124Z,988.94
2017-12-30T08:56:05.081Z,988.97
2017-12-30T08:57:05.132Z,988.94
2017-12-30T08:58:05.198Z,988.90
2017-12-30T08:59:05.140Z,988.79
2017-12-30T09:00:05.199Z,988.85
2017-12-30T09:01:05.131Z,988.73
2017-12-30T09:02:05.201Z,988.67
2017-12-30T09:03:05.162Z,988.66
2017-12-30T09:04:05.133Z,988.59
2017-12-30T09:05:05.098Z,988.62
2017-12-30T09:06:05.096Z,988.56
2017-12-30T09:07:05.097Z,988.55
2017-12-30T09:08:05.099Z,988.53
2017-12-30T09:09:05.142Z,988.45
2017-12-30T09:10:05.102Z,988.46
2017-12-30T09:11:05.158Z,988.41
2017-12-30T09:12:05.055Z,988.43
2017-12-30T09:13:05.148Z,988.40
2017-12-30T09:14:05.057Z,988.46
2017-12-30T09:15:05.096Z,988.47
2017-12-30T09:16:05.146Z,988.42
2017-12-30T09:17:05.083Z,988.40
2017-12-30T09:18:05.095Z,988.33
2017-12-30T09:19:05.095Z,988.21
2017-12-30T09:20:05.149Z,988.19
2017-12-30T09:21:05.153Z,988.21
2017-12-30T09:22:05.149Z,988.17
2017-12-30T09:23:05.103Z,988.16
2017-12-30T09:24:05.058Z,988.14
2017-12-30T09:25:05.144Z,988.11
2017-12-30T09:26:05.216Z,988.12
2017-12-30T09:27:05.143Z,988.10
2017-12-30T09:28:05.143Z,988.09
2017-12-30T09:29:05.149Z,988.07
2017-12-30T09:30:05.216Z,988.08
2017-12-30T09:31:05.146Z,988.05
2017-12-30T09:32:05.100Z,987.99
2017-12-30T09:33:05.149Z,987.94
2017-12-30T09:34:05.250Z,987.89
2017-12-30T09:35:05.149Z,987.80
2017-12-30T09:36:05.218Z,987.69
2017-12-30T09:37:05.150Z,987.66
2017-12-30T09:38:05.220Z,987.61
2017-12-30T09:39:05.152Z,987.63
2017-12-30T09:40:05.221Z,987.69
2017-12-30T09:41:05.152Z,987.69
2017-12-30T09:42:05.225Z,987.68
2017-12-30T09:43:05.151Z,987.65
2017-12-30T09:44:05.223Z,987.59
2017-12-30T09:45:05.207Z,987.61
2017-12-30T09:46:05.148Z,987.54
2017-12-30T09:47:05.168Z,987.41
2017-12-30T09:48:05.224Z,987.40
2017-12-30T09:49:05.172Z,987.30
2017-12-30T09:50:05.131Z,987.33
2017-12-30T09:51:05.218Z,987.27
2017-12-30T09:52:05.127Z,987.31
2017-12-30T09:53:05.174Z,987.27
2017-12-30T09:54:05.112Z,987.26
2017-12-30T09:55:05.233Z,987.16
2017-12-30T09:56:05.161Z,987.16
2017-12-30T09:57:05.230Z,987.07
2017-12-30T09:58:05.163Z,987.04
2017-12-30T09:59:05.163Z,986.91
2017-12-30T10:00:05.264Z,986.87
2017-12-30T10:01:05.247Z,986.80
2017-12-30T10:02:05.166Z,986.79
2017-12-30T10:03:05.235Z,986.78
2017-12-30T10:04:05.237Z,986.78
2017-12-30T10:05:05.206Z,986.73
2017-12-30T10:06:05.263Z,986.74
2017-12-30T10:07:05.165Z,986.69
2017-12-30T10:08:05.237Z,986.71
2017-12-30T10:09:05.173Z,986.69
2017-12-30T10:10:05.240Z,986.70
2017-12-30T10:11:05.164Z,986.73
2017-12-30T10:12:05.164Z,986.67
2017-12-30T10:13:05.244Z,986.70
2017-12-30T10:14:05.166Z,986.70
2017-12-30T10:15:05.244Z,986.75
2017-12-30T10:16:05.174Z,986.74
2017-12-30T10:17:05.246Z,986.72
2017-12-30T10:18:05.170Z,986.63
2017-12-30T10:19:05.248Z,986.64
2017-12-30T10:20:05.171Z,986.58
2017-12-30T10:21:05.247Z,986.54
2017-12-30T10:22:05.179Z,986.58
2017-12-30T10:23:05.248Z,986.55
2017-12-30T10:24:05.176Z,986.52
2017-12-30T10:25:05.251Z,986.45
2017-12-30T10:26:05.251Z,986.41
2017-12-30T10:27:05.176Z,986.46
2017-12-30T10:28:05.259Z,986.41
2017-12-30T10:29:05.186Z,986.40
2017-12-30T10:30:05.252Z,986.44
2017-12-30T10:31:05.182Z,986.42
2017-12-30T10:32:05.183Z,986.39
2017-12-30T10:33:05.255Z,986.47
2017-12-30T10:34:05.184Z,986.50
2017-12-30T10:35:05.156Z,986.45
2017-12-30T10:36:05.184Z,986.43
2017-12-30T10:37:05.150Z,986.45
2017-12-30T10:38:05.167Z,986.45
2017-12-30T10:39:05.205Z,986.39
2017-12-30T10:40:05.143Z,986.40
2017-12-30T10:41:05.146Z,986.35
2017-12-30T10:42:05.238Z,986.32
2017-12-30T10:43:05.184Z,986.32
2017-12-30T10:44:05.116Z,986.28
2017-12-30T10:45:05.167Z,986.31
2017-12-30T10:46:05.165Z,986.22
2017-12-30T10:47:05.245Z,986.14
2017-12-30T10:48:05.188Z,986.15
2017-12-30T10:49:05.255Z,986.08
2017-12-30T10:50:05.252Z,986.10
2017-12-30T10:51:05.263Z,986.05
2017-12-30T10:52:05.232Z,986.00
2017-12-30T10:53:05.186Z,986.02
2017-12-30T10:54:05.227Z,985.96
2017-12-30T10:55:05.191Z,986.03
2017-12-30T10:56:05.236Z,986.01
2017-12-30T10:57:05.167Z,986.00
2017-12-30T10:58:05.163Z,985.96
2017-12-30T10:59:05.180Z,985.95
2017-12-30T11:00:05.258Z,985.87
2017-12-30T11:01:05.206Z,985.90
2017-12-30T11:02:05.267Z,985.86
2017-12-30T11:03:05.209Z,985.77
2017-12-30T11:04:05.173Z,985.84
2017-12-30T11:05:05.154Z,985.89
2017-12-30T11:06:05.157Z,985.86
2017-12-30T11:07:05.251Z,985.78
2017-12-30T11:08:05.234Z,985.88
2017-12-30T11:09:05.223Z,985.76
2017-12-30T11:10:05.222Z,985.82
2017-12-30T11:11:05.147Z,985.73
2017-12-30T11:12:05.240Z,985.63
2017-12-30T11:13:05.242Z,985.75
2017-12-30T11:14:05.204Z,985.64
2017-12-30T11:15:05.280Z,985.60
2017-12-30T11:16:05.211Z,985.58
2017-12-30T11:17:05.283Z,985.68
2017-12-30T11:18:05.206Z,985.60
2017-12-30T11:19:05.193Z,985.57
2017-12-30T11:20:05.212Z,985.61
2017-12-30T11:21:05.284Z,985.57
2017-12-30T11:22:05.214Z,985.57
2017-12-30T11:23:05.286Z,985.54
2017-12-30T11:24:05.210Z,985.43
2017-12-30T11:25:05.281Z,985.46
2017-12-30T11:26:05.209Z,985.39
2017-12-30T11:27:05.200Z,985.34
2017-12-30T11:28:05.138Z,985.38
2017-12-30T11:29:05.231Z,985.38
2017-12-30T11:30:05.216Z,985.40
2017-12-30T11:31:05.229Z,985.35
2017-12-30T11:32:05.215Z,985.32
2017-12-30T11:33:05.123Z,985.39
2017-12-30T11:34:05.245Z,985.42
2017-12-30T11:35:05.219Z,985.26
2017-12-30T11:36:05.221Z,985.31
2017-12-30T11:37:05.291Z,985.31
2017-12-30T11:38:05.299Z,985.34
2017-12-30T11:39:05.226Z,985.23
2017-12-30T11:40:05.296Z,985.33
2017-12-30T11:41:05.295Z,985.23
2017-12-30T11:42:05.221Z,985.23
2017-12-30T11:43:05.298Z,985.22
2017-12-30T11:44:05.242Z,985.16
2017-12-30T11:45:05.343Z,985.10
2017-12-30T11:46:05.225Z,985.13
2017-12-30T11:47:05.240Z,985.02
2017-12-30T11:48:05.300Z,985.07
2017-12-30T11:49:05.269Z,985.03
2017-12-30T11:50:05.228Z,984.97
2017-12-30T11:51:05.302Z,985.00
2017-12-30T11:52:05.230Z,984.97
2017-12-30T11:53:05.229Z,984.98
2017-12-30T11:54:05.183Z,984.95
2017-12-30T11:55:05.229Z,984.98
2017-12-30T11:56:05.305Z,984.95
2017-12-30T11:57:05.235Z,984.93
2017-12-30T11:58:05.232Z,984.96
2017-12-30T11:59:05.306Z,984.86
2017-12-30T12:00:05.235Z,984.85
2017-12-30T12:01:05.309Z,984.97
2017-12-30T12:02:05.240Z,985.02
2017-12-30T12:03:05.310Z,984.94
2017-12-30T12:04:05.242Z,984.90
2017-12-30T12:05:05.313Z,984.91
2017-12-30T12:06:05.240Z,984.83
2017-12-30T12:07:05.241Z,984.86
2017-12-30T12:08:05.241Z,984.90
2017-12-30T12:09:05.310Z,984.87
2017-12-30T12:10:05.240Z,984.93
2017-12-30T12:11:05.330Z,985.05
2017-12-30T12:12:05.245Z,985.03
2017-12-30T12:13:05.314Z,984.99
2017-12-30T12:14:05.315Z,984.94
2017-12-30T12:15:05.240Z,984.90
2017-12-30T12:16:05.299Z,984.89
2017-12-30T12:17:05.227Z,984.93
2017-12-30T12:18:05.259Z,985.01
2017-12-30T12:19:05.278Z,984.92
2017-12-30T12:20:05.307Z,985.10
2017-12-30T12:21:05.220Z,984.92
2017-12-30T12:22:05.262Z,985.03
2017-12-30T12:23:05.265Z,985.07
2017-12-30T12:24:05.218Z,984.94
2017-12-30T12:25:05.245Z,984.79
2017-12-30T12:26:05.321Z,984.77
2017-12-30T12:27:05.249Z,984.76
2017-12-30T12:28:05.327Z,984.81
2017-12-30T12:29:05.251Z,984.89